sensor_id;sensor_type;location;lat;lon;timestamp;temperature;humidity
16578;DHT22;8401;52.528;13.340;2023-07-29T00:00:41;18.50;99.90
16578;DHT22;8401;52.528;13.340;2023-07-29T00:03:11;18.50;99.90
16578;DHT22;8401;52.528;13.340;2023-07-29T00:05:37;18.60;99.90
16578;DHT22;8401;52.528;13.340;2023-07-29T00:08:03;18.50;99.90
16578;DHT22;8401;52.528;13.340;2023-07-29T00:10:30;18.50;99.90
16578;DHT22;8401;52.528;13.340;2023-07-29T00:12:56;18.50;99.90
16578;DHT22;8401;52.528;13.340;2023-07-29T00:15:22;18.50;99.90
16578;DHT22;8401;52.528;13.340;2023-07-29T00:17:47;18.40;99.90
16578;DHT22;8401;52.528;13.340;2023-07-29T00:20:13;18.40;99.90
16578;DHT22;8401;52.528;13.340;2023-07-29T00:22:39;18.40;99.90
16578;DHT22;8401;52.528;13.340;2023-07-29T00:25:05;18.40;99.90
16578;DHT22;8401;52.528;13.340;2023-07-29T00:27:30;18.40;99.90
16578;DHT22;8401;52.528;13.340;2023-07-29T00:29:56;18.50;99.90
16578;DHT22;8401;52.528;13.340;2023-07-29T00:32:21;18.40;99.90
16578;DHT22;8401;52.528;13.340;2023-07-29T00:34:47;18.30;99.90
16578;DHT22;8401;52.528;13.340;2023-07-29T00:37:13;18.40;99.90
16578;DHT22;8401;52.528;13.340;2023-07-29T00:39:39;18.30;99.90
16578;DHT22;8401;52.528;13.340;2023-07-29T00:42:05;18.20;99.90
16578;DHT22;8401;52.528;13.340;2023-07-29T00:44:31;18.30;99.90
16578;DHT22;8401;52.528;13.340;2023-07-29T00:47:00;18.20;99.90
16578;DHT22;8401;52.528;13.340;2023-07-29T00:49:27;18.20;99.90
16578;DHT22;8401;52.528;13.340;2023-07-29T00:51:53;18.20;99.90
16578;DHT22;8401;52.528;13.340;2023-07-29T00:54:19;18.30;99.90
16578;DHT22;8401;52.528;13.340;2023-07-29T00:56:44;18.30;99.90
16578;DHT22;8401;52.528;13.340;2023-07-29T00:59:10;18.30;99.90
16578;DHT22;8401;52.528;13.340;2023-07-29T01:01:36;18.30;99.90
16578;DHT22;8401;52.528;13.340;2023-07-29T01:04:02;18.50;99.90
16578;DHT22;8401;52.528;13.340;2023-07-29T01:09:07;18.60;99.90
16578;DHT22;8401;52.528;13.340;2023-07-29T01:15:14;18.30;99.90
16578;DHT22;8401;52.528;13.340;2023-07-29T01:17:56;18.30;99.90
16578;DHT22;8401;52.528;13.340;2023-07-29T01:20:25;18.30;99.90
16578;DHT22;8401;52.528;13.340;2023-07-29T01:22:51;18.20;99.90
16578;DHT22;8401;52.528;13.340;2023-07-29T01:25:17;18.10;99.90
16578;DHT22;8401;52.528;13.340;2023-07-29T01:27:45;18.10;99.90
16578;DHT22;8401;52.528;13.340;2023-07-29T01:30:11;18.10;99.90
16578;DHT22;8401;52.528;13.340;2023-07-29T01:38:05;18.10;99.90
16578;DHT22;8401;52.528;13.340;2023-07-29T01:40:32;17.90;99.90
16578;DHT22;8401;52.528;13.340;2023-07-29T01:42:58;17.90;99.90
16578;DHT22;8401;52.528;13.340;2023-07-29T01:45:25;17.90;99.90
16578;DHT22;8401;52.528;13.340;2023-07-29T01:47:53;17.90;99.90
16578;DHT22;8401;52.528;13.340;2023-07-29T01:50:19;17.80;99.90
16578;DHT22;8401;52.528;13.340;2023-07-29T01:52:45;17.80;99.90
16578;DHT22;8401;52.528;13.340;2023-07-29T01:55:10;17.80;99.90
16578;DHT22;8401;52.528;13.340;2023-07-29T01:57:36;17.80;99.90
16578;DHT22;8401;52.528;13.340;2023-07-29T02:00:02;17.90;99.90
16578;DHT22;8401;52.528;13.340;2023-07-29T02:02:29;17.90;99.90
16578;DHT22;8401;52.528;13.340;2023-07-29T02:04:54;17.80;99.90
16578;DHT22;8401;52.528;13.340;2023-07-29T02:07:21;17.90;99.90
16578;DHT22;8401;52.528;13.340;2023-07-29T02:09:47;17.90;99.90
16578;DHT22;8401;52.528;13.340;2023-07-29T02:12:12;17.90;99.90
16578;DHT22;8401;52.528;13.340;2023-07-29T02:14:38;18.00;99.90
16578;DHT22;8401;52.528;13.340;2023-07-29T02:17:04;17.90;99.90
16578;DHT22;8401;52.528;13.340;2023-07-29T02:19:29;18.00;99.90
16578;DHT22;8401;52.528;13.340;2023-07-29T02:21:55;18.00;99.90
16578;DHT22;8401;52.528;13.340;2023-07-29T02:24:21;18.10;99.90
16578;DHT22;8401;52.528;13.340;2023-07-29T02:26:46;18.10;99.90
16578;DHT22;8401;52.528;13.340;2023-07-29T02:29:12;18.00;99.90
16578;DHT22;8401;52.528;13.340;2023-07-29T02:31:37;17.90;99.90
16578;DHT22;8401;52.528;13.340;2023-07-29T02:34:04;17.80;99.90
16578;DHT22;8401;52.528;13.340;2023-07-29T02:36:29;17.90;99.90
16578;DHT22;8401;52.528;13.340;2023-07-29T02:38:55;17.70;99.90
16578;DHT22;8401;52.528;13.340;2023-07-29T02:41:21;17.70;99.90
16578;DHT22;8401;52.528;13.340;2023-07-29T02:43:53;17.80;99.90
16578;DHT22;8401;52.528;13.340;2023-07-29T02:46:19;17.80;99.90
16578;DHT22;8401;52.528;13.340;2023-07-29T02:48:44;17.90;99.90
16578;DHT22;8401;52.528;13.340;2023-07-29T02:51:10;17.80;99.90
16578;DHT22;8401;52.528;13.340;2023-07-29T02:53:36;17.70;99.90
16578;DHT22;8401;52.528;13.340;2023-07-29T02:56:03;17.80;99.90
16578;DHT22;8401;52.528;13.340;2023-07-29T02:58:28;17.90;99.90
16578;DHT22;8401;52.528;13.340;2023-07-29T03:01:03;17.80;99.90
16578;DHT22;8401;52.528;13.340;2023-07-29T03:03:29;17.80;99.90
16578;DHT22;8401;52.528;13.340;2023-07-29T03:06:06;17.70;99.90
16578;DHT22;8401;52.528;13.340;2023-07-29T03:08:32;17.70;99.90
16578;DHT22;8401;52.528;13.340;2023-07-29T03:10:58;17.70;99.90
16578;DHT22;8401;52.528;13.340;2023-07-29T03:13:24;17.80;99.90
16578;DHT22;8401;52.528;13.340;2023-07-29T03:15:50;17.90;99.90
16578;DHT22;8401;52.528;13.340;2023-07-29T03:18:16;17.90;99.90
16578;DHT22;8401;52.528;13.340;2023-07-29T03:20:41;17.90;99.90
16578;DHT22;8401;52.528;13.340;2023-07-29T03:23:07;17.90;99.90
16578;DHT22;8401;52.528;13.340;2023-07-29T03:25:33;18.00;99.90
16578;DHT22;8401;52.528;13.340;2023-07-29T03:28:00;17.90;99.90
16578;DHT22;8401;52.528;13.340;2023-07-29T03:30:25;18.00;99.90
16578;DHT22;8401;52.528;13.340;2023-07-29T03:32:51;18.00;99.90
16578;DHT22;8401;52.528;13.340;2023-07-29T03:35:16;18.00;99.90
16578;DHT22;8401;52.528;13.340;2023-07-29T03:37:42;18.00;99.90
16578;DHT22;8401;52.528;13.340;2023-07-29T03:40:09;17.90;99.90
16578;DHT22;8401;52.528;13.340;2023-07-29T03:42:35;17.90;99.90
16578;DHT22;8401;52.528;13.340;2023-07-29T03:45:01;17.90;99.90
16578;DHT22;8401;52.528;13.340;2023-07-29T03:47:27;17.90;99.90
16578;DHT22;8401;52.528;13.340;2023-07-29T03:49:53;17.90;99.90
16578;DHT22;8401;52.528;13.340;2023-07-29T03:52:18;17.80;99.90
16578;DHT22;8401;52.528;13.340;2023-07-29T03:54:44;17.80;99.90
16578;DHT22;8401;52.528;13.340;2023-07-29T03:57:10;17.80;99.90
16578;DHT22;8401;52.528;13.340;2023-07-29T03:59:35;17.80;99.90
16578;DHT22;8401;52.528;13.340;2023-07-29T04:02:01;17.80;99.90
16578;DHT22;8401;52.528;13.340;2023-07-29T04:04:26;17.90;99.90
16578;DHT22;8401;52.528;13.340;2023-07-29T04:06:52;17.90;99.90
16578;DHT22;8401;52.528;13.340;2023-07-29T04:09:18;17.90;99.90
16578;DHT22;8401;52.528;13.340;2023-07-29T04:11:43;17.90;99.90
16578;DHT22;8401;52.528;13.340;2023-07-29T04:14:09;17.90;99.90
16578;DHT22;8401;52.528;13.340;2023-07-29T04:16:34;17.80;99.90
16578;DHT22;8401;52.528;13.340;2023-07-29T04:19:00;17.90;99.90
16578;DHT22;8401;52.528;13.340;2023-07-29T04:21:26;17.90;99.90
16578;DHT22;8401;52.528;13.340;2023-07-29T04:23:51;17.90;99.90
16578;DHT22;8401;52.528;13.340;2023-07-29T04:26:17;17.90;99.90
16578;DHT22;8401;52.528;13.340;2023-07-29T04:28:43;17.90;99.90
16578;DHT22;8401;52.528;13.340;2023-07-29T04:31:08;18.00;99.90
16578;DHT22;8401;52.528;13.340;2023-07-29T04:33:34;18.00;99.90
16578;DHT22;8401;52.528;13.340;2023-07-29T04:36:00;18.10;99.90
16578;DHT22;8401;52.528;13.340;2023-07-29T04:38:31;18.10;99.90
16578;DHT22;8401;52.528;13.340;2023-07-29T04:40:58;18.20;99.90
16578;DHT22;8401;52.528;13.340;2023-07-29T04:43:27;18.20;99.90
16578;DHT22;8401;52.528;13.340;2023-07-29T04:45:53;18.20;99.90
16578;DHT22;8401;52.528;13.340;2023-07-29T04:48:19;18.00;99.90
16578;DHT22;8401;52.528;13.340;2023-07-29T04:50:45;18.00;99.90
16578;DHT22;8401;52.528;13.340;2023-07-29T04:53:11;17.90;99.90
16578;DHT22;8401;52.528;13.340;2023-07-29T04:55:37;18.00;99.90
16578;DHT22;8401;52.528;13.340;2023-07-29T04:58:02;18.00;99.90
16578;DHT22;8401;52.528;13.340;2023-07-29T05:00:28;18.20;99.90
16578;DHT22;8401;52.528;13.340;2023-07-29T05:02:53;18.30;99.90
16578;DHT22;8401;52.528;13.340;2023-07-29T05:05:19;18.30;99.90
16578;DHT22;8401;52.528;13.340;2023-07-29T05:07:45;18.30;99.90
16578;DHT22;8401;52.528;13.340;2023-07-29T05:10:10;18.40;99.90
16578;DHT22;8401;52.528;13.340;2023-07-29T05:12:36;18.40;99.90
16578;DHT22;8401;52.528;13.340;2023-07-29T05:15:03;18.40;99.90
16578;DHT22;8401;52.528;13.340;2023-07-29T05:17:30;18.50;99.90
16578;DHT22;8401;52.528;13.340;2023-07-29T05:19:55;18.40;99.90
16578;DHT22;8401;52.528;13.340;2023-07-29T05:22:21;18.50;99.90
16578;DHT22;8401;52.528;13.340;2023-07-29T05:24:47;18.50;99.90
16578;DHT22;8401;52.528;13.340;2023-07-29T05:27:12;18.80;99.90
16578;DHT22;8401;52.528;13.340;2023-07-29T05:29:38;18.90;99.90
16578;DHT22;8401;52.528;13.340;2023-07-29T05:32:04;19.10;99.90
16578;DHT22;8401;52.528;13.340;2023-07-29T05:34:29;19.20;99.90
16578;DHT22;8401;52.528;13.340;2023-07-29T05:36:55;19.20;99.90
16578;DHT22;8401;52.528;13.340;2023-07-29T05:39:21;19.20;99.90
16578;DHT22;8401;52.528;13.340;2023-07-29T05:41:46;19.30;99.90
16578;DHT22;8401;52.528;13.340;2023-07-29T05:44:12;19.30;99.90
16578;DHT22;8401;52.528;13.340;2023-07-29T05:46:38;19.30;99.90
16578;DHT22;8401;52.528;13.340;2023-07-29T05:49:03;19.40;99.90
16578;DHT22;8401;52.528;13.340;2023-07-29T05:51:29;19.50;99.90
16578;DHT22;8401;52.528;13.340;2023-07-29T05:53:55;19.50;99.90
16578;DHT22;8401;52.528;13.340;2023-07-29T05:56:22;19.50;99.90
16578;DHT22;8401;52.528;13.340;2023-07-29T05:58:47;19.40;99.90
16578;DHT22;8401;52.528;13.340;2023-07-29T06:01:13;19.60;99.90
16578;DHT22;8401;52.528;13.340;2023-07-29T06:03:39;19.70;99.90
16578;DHT22;8401;52.528;13.340;2023-07-29T06:06:04;19.70;99.90
16578;DHT22;8401;52.528;13.340;2023-07-29T06:08:30;19.70;99.90
16578;DHT22;8401;52.528;13.340;2023-07-29T06:10:58;19.70;99.90
16578;DHT22;8401;52.528;13.340;2023-07-29T06:13:23;19.70;99.90
16578;DHT22;8401;52.528;13.340;2023-07-29T06:15:49;19.80;99.90
16578;DHT22;8401;52.528;13.340;2023-07-29T06:18:15;19.90;99.90
16578;DHT22;8401;52.528;13.340;2023-07-29T06:20:41;19.80;99.90
16578;DHT22;8401;52.528;13.340;2023-07-29T06:23:07;19.90;99.90
16578;DHT22;8401;52.528;13.340;2023-07-29T06:25:33;20.10;99.90
16578;DHT22;8401;52.528;13.340;2023-07-29T06:27:59;20.20;99.90
16578;DHT22;8401;52.528;13.340;2023-07-29T06:30:24;20.20;99.90
16578;DHT22;8401;52.528;13.340;2023-07-29T06:32:50;20.20;99.90
16578;DHT22;8401;52.528;13.340;2023-07-29T06:35:16;20.10;99.90
16578;DHT22;8401;52.528;13.340;2023-07-29T06:37:41;20.40;99.90
16578;DHT22;8401;52.528;13.340;2023-07-29T06:40:07;20.50;99.90
16578;DHT22;8401;52.528;13.340;2023-07-29T06:42:33;20.60;99.90
16578;DHT22;8401;52.528;13.340;2023-07-29T06:44:59;20.60;99.90
16578;DHT22;8401;52.528;13.340;2023-07-29T06:47:24;20.60;99.90
16578;DHT22;8401;52.528;13.340;2023-07-29T06:49:50;20.70;99.90
16578;DHT22;8401;52.528;13.340;2023-07-29T06:52:15;20.70;99.90
16578;DHT22;8401;52.528;13.340;2023-07-29T06:54:41;20.70;99.90
16578;DHT22;8401;52.528;13.340;2023-07-29T06:57:07;20.90;99.90
16578;DHT22;8401;52.528;13.340;2023-07-29T06:59:33;21.00;99.90
16578;DHT22;8401;52.528;13.340;2023-07-29T07:01:59;21.40;99.90
16578;DHT22;8401;52.528;13.340;2023-07-29T07:04:25;21.60;99.90
16578;DHT22;8401;52.528;13.340;2023-07-29T07:06:51;21.80;99.90
16578;DHT22;8401;52.528;13.340;2023-07-29T07:09:16;21.80;99.90
16578;DHT22;8401;52.528;13.340;2023-07-29T07:11:42;22.10;99.90
16578;DHT22;8401;52.528;13.340;2023-07-29T07:14:08;22.20;99.90
16578;DHT22;8401;52.528;13.340;2023-07-29T07:16:33;22.00;99.90
16578;DHT22;8401;52.528;13.340;2023-07-29T07:19:02;21.70;99.90
16578;DHT22;8401;52.528;13.340;2023-07-29T07:21:28;21.80;99.90
16578;DHT22;8401;52.528;13.340;2023-07-29T07:23:53;21.80;99.90
16578;DHT22;8401;52.528;13.340;2023-07-29T07:26:19;21.60;99.90
16578;DHT22;8401;52.528;13.340;2023-07-29T07:28:45;21.40;99.90
16578;DHT22;8401;52.528;13.340;2023-07-29T07:31:10;21.60;99.90
16578;DHT22;8401;52.528;13.340;2023-07-29T07:33:36;21.90;99.90
16578;DHT22;8401;52.528;13.340;2023-07-29T07:36:02;22.00;99.90
16578;DHT22;8401;52.528;13.340;2023-07-29T07:38:27;22.00;99.90
16578;DHT22;8401;52.528;13.340;2023-07-29T07:40:56;21.80;99.90
16578;DHT22;8401;52.528;13.340;2023-07-29T07:43:22;21.70;99.90
16578;DHT22;8401;52.528;13.340;2023-07-29T07:45:48;22.10;99.90
16578;DHT22;8401;52.528;13.340;2023-07-29T07:48:14;22.20;99.90
16578;DHT22;8401;52.528;13.340;2023-07-29T07:50:42;22.30;99.90
16578;DHT22;8401;52.528;13.340;2023-07-29T07:53:08;22.90;99.90
16578;DHT22;8401;52.528;13.340;2023-07-29T07:55:33;23.20;99.90
16578;DHT22;8401;52.528;13.340;2023-07-29T07:57:59;23.30;99.90
16578;DHT22;8401;52.528;13.340;2023-07-29T08:00:25;23.60;99.90
16578;DHT22;8401;52.528;13.340;2023-07-29T08:02:50;23.50;99.90
16578;DHT22;8401;52.528;13.340;2023-07-29T08:05:16;23.20;99.90
16578;DHT22;8401;52.528;13.340;2023-07-29T08:07:41;23.20;99.90
16578;DHT22;8401;52.528;13.340;2023-07-29T08:10:07;22.90;99.90
16578;DHT22;8401;52.528;13.340;2023-07-29T08:12:33;23.60;99.90
16578;DHT22;8401;52.528;13.340;2023-07-29T08:14:59;24.60;99.90
16578;DHT22;8401;52.528;13.340;2023-07-29T08:17:24;24.70;99.90
16578;DHT22;8401;52.528;13.340;2023-07-29T08:19:50;24.40;99.90
16578;DHT22;8401;52.528;13.340;2023-07-29T08:22:16;24.30;99.90
16578;DHT22;8401;52.528;13.340;2023-07-29T08:24:42;24.20;99.90
16578;DHT22;8401;52.528;13.340;2023-07-29T08:27:08;23.80;99.90
16578;DHT22;8401;52.528;13.340;2023-07-29T08:29:34;24.00;99.90
16578;DHT22;8401;52.528;13.340;2023-07-29T08:31:59;24.80;99.90
16578;DHT22;8401;52.528;13.340;2023-07-29T08:34:25;24.80;99.90
16578;DHT22;8401;52.528;13.340;2023-07-29T08:36:51;24.80;99.90
16578;DHT22;8401;52.528;13.340;2023-07-29T08:39:16;24.70;99.90
16578;DHT22;8401;52.528;13.340;2023-07-29T08:44:22;24.50;99.90
16578;DHT22;8401;52.528;13.340;2023-07-29T08:46:49;23.90;99.90
16578;DHT22;8401;52.528;13.340;2023-07-29T08:49:16;23.70;99.90
16578;DHT22;8401;52.528;13.340;2023-07-29T08:51:48;23.90;99.90
16578;DHT22;8401;52.528;13.340;2023-07-29T08:54:14;23.90;99.90
16578;DHT22;8401;52.528;13.340;2023-07-29T08:56:43;23.80;99.90
16578;DHT22;8401;52.528;13.340;2023-07-29T08:59:10;23.80;99.90
16578;DHT22;8401;52.528;13.340;2023-07-29T09:01:39;23.70;99.90
16578;DHT22;8401;52.528;13.340;2023-07-29T09:04:05;23.90;99.90
16578;DHT22;8401;52.528;13.340;2023-07-29T09:06:31;24.10;99.90
16578;DHT22;8401;52.528;13.340;2023-07-29T09:08:58;24.10;99.90
16578;DHT22;8401;52.528;13.340;2023-07-29T09:11:24;24.20;99.90
16578;DHT22;8401;52.528;13.340;2023-07-29T09:13:50;24.30;99.90
16578;DHT22;8401;52.528;13.340;2023-07-29T09:16:16;24.50;99.90
16578;DHT22;8401;52.528;13.340;2023-07-29T09:18:41;24.30;99.90
16578;DHT22;8401;52.528;13.340;2023-07-29T09:21:07;24.10;99.90
16578;DHT22;8401;52.528;13.340;2023-07-29T09:23:44;24.30;99.90
16578;DHT22;8401;52.528;13.340;2023-07-29T09:26:10;24.80;99.90
16578;DHT22;8401;52.528;13.340;2023-07-29T09:28:38;24.80;99.90
16578;DHT22;8401;52.528;13.340;2023-07-29T09:31:04;24.90;99.90
16578;DHT22;8401;52.528;13.340;2023-07-29T09:33:33;25.20;99.90
16578;DHT22;8401;52.528;13.340;2023-07-29T09:36:08;25.20;99.90
16578;DHT22;8401;52.528;13.340;2023-07-29T09:38:35;25.20;99.90
16578;DHT22;8401;52.528;13.340;2023-07-29T09:41:01;25.30;99.90
16578;DHT22;8401;52.528;13.340;2023-07-29T09:43:33;25.60;99.90
16578;DHT22;8401;52.528;13.340;2023-07-29T09:46:04;25.60;99.90
16578;DHT22;8401;52.528;13.340;2023-07-29T09:48:34;25.80;99.90
16578;DHT22;8401;52.528;13.340;2023-07-29T09:51:03;25.10;99.90
16578;DHT22;8401;52.528;13.340;2023-07-29T09:53:45;24.70;99.90
16578;DHT22;8401;52.528;13.340;2023-07-29T09:56:12;24.80;99.90
16578;DHT22;8401;52.528;13.340;2023-07-29T09:58:38;24.90;99.90
16578;DHT22;8401;52.528;13.340;2023-07-29T10:01:07;25.70;99.90
16578;DHT22;8401;52.528;13.340;2023-07-29T10:03:34;25.90;99.90
16578;DHT22;8401;52.528;13.340;2023-07-29T10:06:04;26.00;99.90
16578;DHT22;8401;52.528;13.340;2023-07-29T10:08:31;26.50;99.90
16578;DHT22;8401;52.528;13.340;2023-07-29T10:11:10;26.30;99.90
16578;DHT22;8401;52.528;13.340;2023-07-29T10:13:36;26.20;99.90
16578;DHT22;8401;52.528;13.340;2023-07-29T10:16:03;25.80;99.90
16578;DHT22;8401;52.528;13.340;2023-07-29T10:18:30;25.80;99.90
16578;DHT22;8401;52.528;13.340;2023-07-29T10:20:57;26.30;99.90
16578;DHT22;8401;52.528;13.340;2023-07-29T10:23:26;26.20;99.90
16578;DHT22;8401;52.528;13.340;2023-07-29T10:26:01;26.20;99.90
16578;DHT22;8401;52.528;13.340;2023-07-29T10:28:29;26.00;99.90
16578;DHT22;8401;52.528;13.340;2023-07-29T10:30:56;26.10;99.90
16578;DHT22;8401;52.528;13.340;2023-07-29T10:33:22;26.10;99.90
16578;DHT22;8401;52.528;13.340;2023-07-29T10:35:48;26.10;99.90
16578;DHT22;8401;52.528;13.340;2023-07-29T10:38:15;26.00;99.90
16578;DHT22;8401;52.528;13.340;2023-07-29T10:40:51;26.20;99.90
16578;DHT22;8401;52.528;13.340;2023-07-29T10:43:32;26.50;99.90
16578;DHT22;8401;52.528;13.340;2023-07-29T10:46:18;26.50;99.90
16578;DHT22;8401;52.528;13.340;2023-07-29T10:48:55;26.70;99.90
16578;DHT22;8401;52.528;13.340;2023-07-29T10:51:24;26.90;99.90
16578;DHT22;8401;52.528;13.340;2023-07-29T10:56:31;26.40;99.90
16578;DHT22;8401;52.528;13.340;2023-07-29T11:01:41;25.60;99.90
16578;DHT22;8401;52.528;13.340;2023-07-29T11:07:22;25.10;99.90
16578;DHT22;8401;52.528;13.340;2023-07-29T11:10:03;24.90;99.90
16578;DHT22;8401;52.528;13.340;2023-07-29T11:12:37;24.70;99.90
16578;DHT22;8401;52.528;13.340;2023-07-29T11:17:32;20.20;99.90
16578;DHT22;8401;52.528;13.340;2023-07-29T11:20:03;19.00;99.90
16578;DHT22;8401;52.528;13.340;2023-07-29T11:22:30;18.60;99.90
16578;DHT22;8401;52.528;13.340;2023-07-29T11:24:55;18.10;99.90
16578;DHT22;8401;52.528;13.340;2023-07-29T11:27:21;18.20;99.90
16578;DHT22;8401;52.528;13.340;2023-07-29T11:29:48;18.30;99.90
16578;DHT22;8401;52.528;13.340;2023-07-29T11:32:13;18.40;99.90
16578;DHT22;8401;52.528;13.340;2023-07-29T11:34:40;18.50;99.90
16578;DHT22;8401;52.528;13.340;2023-07-29T11:37:06;18.80;99.90
16578;DHT22;8401;52.528;13.340;2023-07-29T11:39:32;18.80;99.90
16578;DHT22;8401;52.528;13.340;2023-07-29T11:41:58;18.80;99.90
16578;DHT22;8401;52.528;13.340;2023-07-29T11:44:27;18.90;99.90
16578;DHT22;8401;52.528;13.340;2023-07-29T11:46:54;19.00;99.90
16578;DHT22;8401;52.528;13.340;2023-07-29T11:49:19;19.10;99.90
16578;DHT22;8401;52.528;13.340;2023-07-29T11:51:46;19.10;99.90
16578;DHT22;8401;52.528;13.340;2023-07-29T11:54:12;19.00;99.90
16578;DHT22;8401;52.528;13.340;2023-07-29T11:56:38;19.10;99.90
16578;DHT22;8401;52.528;13.340;2023-07-29T11:59:04;19.10;99.90
16578;DHT22;8401;52.528;13.340;2023-07-29T12:01:30;19.20;99.90
16578;DHT22;8401;52.528;13.340;2023-07-29T12:03:57;19.40;99.90
16578;DHT22;8401;52.528;13.340;2023-07-29T12:06:23;19.60;99.90
16578;DHT22;8401;52.528;13.340;2023-07-29T12:08:50;19.70;99.90
16578;DHT22;8401;52.528;13.340;2023-07-29T12:11:16;19.90;99.90
16578;DHT22;8401;52.528;13.340;2023-07-29T12:13:43;19.80;99.90
16578;DHT22;8401;52.528;13.340;2023-07-29T12:16:08;19.90;99.90
16578;DHT22;8401;52.528;13.340;2023-07-29T12:18:35;20.10;99.90
16578;DHT22;8401;52.528;13.340;2023-07-29T12:21:01;20.00;99.90
16578;DHT22;8401;52.528;13.340;2023-07-29T12:23:28;19.90;99.90
16578;DHT22;8401;52.528;13.340;2023-07-29T12:25:59;20.20;99.90
16578;DHT22;8401;52.528;13.340;2023-07-29T12:28:25;20.50;99.90
16578;DHT22;8401;52.528;13.340;2023-07-29T12:30:55;20.60;99.90
16578;DHT22;8401;52.528;13.340;2023-07-29T12:33:34;20.40;99.90
16578;DHT22;8401;52.528;13.340;2023-07-29T12:36:04;20.30;99.90
16578;DHT22;8401;52.528;13.340;2023-07-29T12:38:30;20.40;99.90
16578;DHT22;8401;52.528;13.340;2023-07-29T12:40:56;20.30;99.90
16578;DHT22;8401;52.528;13.340;2023-07-29T12:43:22;20.40;99.90
16578;DHT22;8401;52.528;13.340;2023-07-29T12:45:51;20.50;99.90
16578;DHT22;8401;52.528;13.340;2023-07-29T12:48:16;20.60;99.90
16578;DHT22;8401;52.528;13.340;2023-07-29T12:50:42;21.20;99.90
16578;DHT22;8401;52.528;13.340;2023-07-29T12:53:09;21.10;99.90
16578;DHT22;8401;52.528;13.340;2023-07-29T12:55:37;21.40;99.90
16578;DHT22;8401;52.528;13.340;2023-07-29T12:58:03;21.50;99.90
16578;DHT22;8401;52.528;13.340;2023-07-29T13:00:29;21.50;99.90
16578;DHT22;8401;52.528;13.340;2023-07-29T13:02:55;21.50;99.90
16578;DHT22;8401;52.528;13.340;2023-07-29T13:05:21;21.30;99.90
16578;DHT22;8401;52.528;13.340;2023-07-29T13:07:47;21.50;99.90
16578;DHT22;8401;52.528;13.340;2023-07-29T13:10:12;21.50;99.90
16578;DHT22;8401;52.528;13.340;2023-07-29T13:12:39;21.90;99.90
16578;DHT22;8401;52.528;13.340;2023-07-29T13:15:05;21.90;99.90
16578;DHT22;8401;52.528;13.340;2023-07-29T13:17:31;21.80;99.90
16578;DHT22;8401;52.528;13.340;2023-07-29T13:19:56;22.00;99.90
16578;DHT22;8401;52.528;13.340;2023-07-29T13:22:22;22.20;99.90
16578;DHT22;8401;52.528;13.340;2023-07-29T13:24:48;22.30;99.90
16578;DHT22;8401;52.528;13.340;2023-07-29T13:27:13;22.70;99.90
16578;DHT22;8401;52.528;13.340;2023-07-29T13:29:39;22.50;99.90
16578;DHT22;8401;52.528;13.340;2023-07-29T13:32:05;22.80;99.90
16578;DHT22;8401;52.528;13.340;2023-07-29T13:34:31;23.20;99.90
16578;DHT22;8401;52.528;13.340;2023-07-29T13:36:57;23.30;99.90
16578;DHT22;8401;52.528;13.340;2023-07-29T13:39:23;23.00;99.90
16578;DHT22;8401;52.528;13.340;2023-07-29T13:41:49;23.20;99.90
16578;DHT22;8401;52.528;13.340;2023-07-29T13:44:14;23.60;99.90
16578;DHT22;8401;52.528;13.340;2023-07-29T13:46:40;23.90;99.90
16578;DHT22;8401;52.528;13.340;2023-07-29T13:49:05;24.10;99.90
16578;DHT22;8401;52.528;13.340;2023-07-29T13:51:31;24.10;99.90
16578;DHT22;8401;52.528;13.340;2023-07-29T13:53:57;24.00;99.90
16578;DHT22;8401;52.528;13.340;2023-07-29T13:56:22;23.90;99.90
16578;DHT22;8401;52.528;13.340;2023-07-29T13:58:48;23.50;99.90
16578;DHT22;8401;52.528;13.340;2023-07-29T14:01:14;23.30;99.90
16578;DHT22;8401;52.528;13.340;2023-07-29T14:03:39;23.30;99.90
16578;DHT22;8401;52.528;13.340;2023-07-29T14:06:05;23.40;99.90
16578;DHT22;8401;52.528;13.340;2023-07-29T14:08:31;23.40;99.90
16578;DHT22;8401;52.528;13.340;2023-07-29T14:10:56;23.60;99.90
16578;DHT22;8401;52.528;13.340;2023-07-29T14:13:22;23.70;99.90
16578;DHT22;8401;52.528;13.340;2023-07-29T14:15:48;23.80;99.90
16578;DHT22;8401;52.528;13.340;2023-07-29T14:18:13;23.60;99.90
16578;DHT22;8401;52.528;13.340;2023-07-29T14:20:39;23.50;99.90
16578;DHT22;8401;52.528;13.340;2023-07-29T14:23:05;23.50;99.90
16578;DHT22;8401;52.528;13.340;2023-07-29T14:25:31;23.50;99.90
16578;DHT22;8401;52.528;13.340;2023-07-29T14:27:56;23.50;99.90
16578;DHT22;8401;52.528;13.340;2023-07-29T14:30:22;23.40;99.90
16578;DHT22;8401;52.528;13.340;2023-07-29T14:32:48;23.20;99.90
16578;DHT22;8401;52.528;13.340;2023-07-29T14:35:14;23.30;99.90
16578;DHT22;8401;52.528;13.340;2023-07-29T14:37:39;23.60;99.90
16578;DHT22;8401;52.528;13.340;2023-07-29T14:40:06;23.60;99.90
16578;DHT22;8401;52.528;13.340;2023-07-29T14:42:31;23.90;99.90
16578;DHT22;8401;52.528;13.340;2023-07-29T14:44:57;23.70;99.90
16578;DHT22;8401;52.528;13.340;2023-07-29T14:47:23;23.80;99.90
16578;DHT22;8401;52.528;13.340;2023-07-29T14:49:48;23.70;99.90
16578;DHT22;8401;52.528;13.340;2023-07-29T14:52:14;23.70;99.90
16578;DHT22;8401;52.528;13.340;2023-07-29T14:54:40;23.60;99.90
16578;DHT22;8401;52.528;13.340;2023-07-29T14:57:06;23.60;99.90
16578;DHT22;8401;52.528;13.340;2023-07-29T14:59:32;23.20;99.90
16578;DHT22;8401;52.528;13.340;2023-07-29T15:01:58;23.00;99.90
16578;DHT22;8401;52.528;13.340;2023-07-29T15:04:24;22.90;99.90
16578;DHT22;8401;52.528;13.340;2023-07-29T15:06:50;22.90;99.90
16578;DHT22;8401;52.528;13.340;2023-07-29T15:09:15;23.00;99.90
16578;DHT22;8401;52.528;13.340;2023-07-29T15:11:41;23.00;99.90
16578;DHT22;8401;52.528;13.340;2023-07-29T15:14:07;23.10;99.90
16578;DHT22;8401;52.528;13.340;2023-07-29T15:16:33;23.00;99.90
16578;DHT22;8401;52.528;13.340;2023-07-29T15:19:03;22.90;99.90
16578;DHT22;8401;52.528;13.340;2023-07-29T15:21:31;22.90;99.90
16578;DHT22;8401;52.528;13.340;2023-07-29T15:23:59;22.80;99.90
16578;DHT22;8401;52.528;13.340;2023-07-29T15:26:24;22.80;99.90
16578;DHT22;8401;52.528;13.340;2023-07-29T15:28:50;22.80;99.90
16578;DHT22;8401;52.528;13.340;2023-07-29T15:31:16;22.70;99.90
16578;DHT22;8401;52.528;13.340;2023-07-29T15:33:42;22.10;99.90
16578;DHT22;8401;52.528;13.340;2023-07-29T15:36:08;21.10;99.90
16578;DHT22;8401;52.528;13.340;2023-07-29T15:38:37;19.60;99.90
16578;DHT22;8401;52.528;13.340;2023-07-29T15:41:03;18.90;99.90
16578;DHT22;8401;52.528;13.340;2023-07-29T15:43:28;18.70;99.90
16578;DHT22;8401;52.528;13.340;2023-07-29T15:45:54;18.50;99.90
16578;DHT22;8401;52.528;13.340;2023-07-29T15:48:19;18.50;99.90
16578;DHT22;8401;52.528;13.340;2023-07-29T15:50:45;18.40;99.90